createdAt,value
2024-02-08T00:01:06.448Z,9.65
2024-02-08T00:04:15.505Z,9.65
2024-02-08T00:07:37.083Z,9.72
2024-02-08T00:10:40.285Z,9.51
2024-02-08T00:13:44.105Z,9.60
2024-02-08T00:16:53.922Z,9.60
2024-02-08T00:20:00.853Z,9.65
2024-02-08T00:23:04.667Z,9.62
2024-02-08T00:26:12.971Z,9.61
2024-02-08T00:29:33.941Z,9.40
2024-02-08T00:32:58.124Z,9.49
2024-02-08T00:36:16.432Z,9.51
2024-02-08T00:39:34.077Z,9.50
2024-02-08T00:43:06.335Z,9.49
2024-02-08T00:46:26.423Z,9.59
2024-02-08T00:49:47.098Z,9.57
2024-02-08T00:53:11.183Z,9.66
2024-02-08T00:56:28.280Z,9.76
2024-02-08T00:59:49.028Z,9.77
2024-02-08T01:03:16.275Z,9.75
2024-02-08T01:06:39.095Z,9.73
2024-02-08T01:10:03.022Z,9.66
2024-02-08T01:13:23.239Z,9.68
2024-02-08T01:16:34.609Z,9.56
2024-02-08T01:19:51.026Z,9.69
2024-02-08T01:23:26.980Z,9.78
2024-02-08T01:26:48.351Z,9.89
2024-02-08T01:30:08.078Z,9.98
2024-02-08T01:33:35.349Z,10.00
2024-02-08T01:36:55.050Z,10.14
2024-02-08T01:40:24.878Z,10.06
2024-02-08T01:43:38.145Z,10.13
2024-02-08T01:46:54.145Z,10.09
2024-02-08T01:50:21.031Z,10.12
2024-02-08T01:53:43.912Z,10.07
2024-02-08T01:57:05.352Z,10.11
2024-02-08T02:00:28.108Z,10.17
2024-02-08T02:03:55.046Z,10.13
2024-02-08T02:07:10.724Z,10.19
2024-02-08T02:10:33.699Z,10.15
2024-02-08T02:13:49.845Z,10.11
2024-02-08T02:17:11.391Z,10.15
2024-02-08T02:20:20.161Z,10.10
2024-02-08T02:23:25.298Z,10.04
2024-02-08T02:26:36.335Z,10.09
2024-02-08T02:29:46.572Z,10.01
2024-02-08T02:33:11.914Z,9.91
2024-02-08T02:36:47.930Z,9.79
2024-02-08T02:40:15.751Z,9.81
2024-02-08T02:43:40.775Z,9.75
2024-02-08T02:47:05.880Z,9.65
2024-02-08T02:50:22.747Z,9.49
2024-02-08T02:53:45.736Z,9.42
2024-02-08T02:57:06.744Z,9.60
2024-02-08T03:00:22.960Z,9.55
2024-02-08T03:03:43.213Z,9.61
2024-02-08T03:07:05.797Z,9.65
2024-02-08T03:10:37.954Z,9.62
2024-02-08T03:13:50.620Z,9.82
2024-02-08T03:17:14.800Z,9.93
2024-02-08T03:20:32.003Z,10.02
2024-02-08T03:23:53.678Z,10.15
2024-02-08T03:27:26.757Z,9.85
2024-02-08T03:30:50.709Z,9.85
2024-02-08T03:34:16.768Z,10.04
2024-02-08T03:37:37.035Z,10.24
2024-02-08T03:40:55.938Z,10.11
2024-02-08T03:44:20.737Z,10.17
2024-02-08T03:47:34.091Z,10.18
2024-02-08T03:50:59.589Z,10.09
2024-02-08T03:54:20.602Z,9.84
2024-02-08T03:57:37.631Z,9.57
2024-02-08T04:00:58.782Z,9.81
2024-02-08T04:04:23.702Z,9.88
2024-02-08T04:07:58.341Z,9.28
2024-02-08T04:11:05.118Z,9.15
2024-02-08T04:14:45.567Z,9.37
2024-02-08T04:18:25.776Z,9.37
2024-02-08T04:21:49.330Z,9.44
2024-02-08T04:25:17.990Z,9.86
2024-02-08T04:28:45.761Z,9.86
2024-02-08T04:32:08.173Z,9.98
2024-02-08T04:35:44.298Z,9.98
2024-02-08T04:39:19.312Z,9.92
2024-02-08T04:42:52.056Z,9.74
2024-02-08T04:46:14.476Z,9.86
2024-02-08T04:49:38.618Z,9.98
2024-02-08T04:53:01.659Z,10.00
2024-02-08T04:56:10.608Z,9.98
2024-02-08T04:59:21.948Z,9.98
2024-02-08T05:02:28.251Z,9.98
2024-02-08T05:05:51.493Z,9.88
2024-02-08T05:09:27.450Z,9.97
2024-02-08T05:12:50.505Z,10.03
2024-02-08T05:16:06.706Z,9.94
2024-02-08T05:19:31.442Z,9.93
2024-02-08T05:22:52.628Z,10.05
2024-02-08T05:26:22.481Z,10.17
2024-02-08T05:29:45.507Z,10.27
2024-02-08T05:32:48.582Z,10.21
2024-02-08T05:35:57.884Z,10.15
2024-02-08T05:39:05.622Z,10.31
2024-02-08T05:42:24.197Z,10.31
2024-02-08T05:45:39.069Z,10.32
2024-02-08T05:49:06.369Z,10.33
2024-02-08T05:52:25.950Z,10.45
2024-02-08T05:55:50.069Z,10.56
2024-02-08T05:59:07.348Z,10.44
2024-02-08T06:02:26.008Z,10.52
2024-02-08T06:05:33.001Z,10.55
2024-02-08T06:09:02.230Z,10.52
2024-02-08T06:12:46.783Z,10.45
2024-02-08T06:16:22.526Z,10.24
2024-02-08T06:19:35.849Z,10.00
2024-02-08T06:22:49.938Z,9.88
2024-02-08T06:26:13.178Z,9.84
2024-02-08T06:29:50.632Z,9.85
2024-02-08T06:33:12.680Z,9.80
2024-02-08T06:36:25.860Z,9.97
2024-02-08T06:39:46.294Z,10.07
2024-02-08T06:43:16.331Z,9.98
2024-02-08T06:46:49.432Z,10.07
2024-02-08T06:50:25.304Z,10.24
2024-02-08T06:54:02.476Z,10.33
2024-02-08T06:57:29.031Z,10.20
2024-02-08T07:01:14.448Z,10.22
2024-02-08T07:04:48.885Z,10.71
2024-02-08T07:08:19.965Z,10.75
2024-02-08T07:12:03.626Z,10.72
2024-02-08T07:15:45.513Z,10.72
2024-02-08T07:19:16.123Z,10.82
2024-02-08T07:22:59.451Z,10.78
2024-02-08T07:26:49.780Z,10.91
2024-02-08T07:30:17.388Z,10.98
2024-02-08T07:33:47.238Z,10.82
2024-02-08T07:37:12.441Z,11.09
2024-02-08T07:40:24.959Z,11.05
2024-02-08T07:43:36.953Z,10.97
2024-02-08T07:46:57.662Z,11.12
2024-02-08T07:50:29.609Z,11.09
2024-02-08T07:54:14.502Z,11.10
2024-02-08T07:57:36.668Z,10.98
2024-02-08T08:00:45.653Z,11.17
2024-02-08T08:03:58.852Z,11.00
2024-02-08T08:07:30.323Z,11.11
2024-02-08T08:11:05.096Z,11.12
2024-02-08T08:14:44.217Z,11.32
2024-02-08T08:18:03.385Z,11.36
2024-02-08T08:21:27.770Z,11.43
2024-02-08T08:24:58.061Z,11.61
2024-02-08T08:28:31.559Z,11.71
2024-02-08T08:32:03.872Z,11.85
2024-02-08T08:48:35.430Z,11.84
2024-02-08T08:52:08.446Z,12.05
2024-02-08T08:55:53.497Z,12.18
2024-02-08T08:59:06.729Z,12.43
2024-02-08T09:02:38.533Z,12.44
2024-02-08T09:06:02.851Z,12.53
2024-02-08T09:09:29.667Z,12.24
2024-02-08T09:12:41.905Z,12.29
2024-02-08T09:16:18.008Z,12.18
2024-02-08T09:19:29.824Z,12.46
2024-02-08T09:22:41.213Z,12.41
2024-02-08T09:26:09.634Z,12.48
2024-02-08T09:29:45.380Z,12.49
2024-02-08T09:32:54.624Z,12.60
2024-02-08T09:36:29.020Z,12.70
2024-02-08T09:40:27.576Z,12.94
2024-02-08T09:43:50.760Z,13.07
2024-02-08T09:47:13.141Z,12.99
2024-02-08T09:50:52.759Z,13.06
2024-02-08T09:54:33.284Z,13.16
2024-02-08T09:58:14.277Z,13.42
2024-02-08T10:01:44.463Z,13.71
2024-02-08T10:05:06.642Z,13.93
2024-02-08T10:08:42.479Z,14.13
2024-02-08T10:12:01.571Z,14.42
2024-02-08T10:15:17.122Z,14.35
2024-02-08T10:18:54.319Z,14.75
2024-02-08T10:22:30.853Z,14.89
2024-02-08T10:26:04.801Z,14.90
2024-02-08T10:29:17.553Z,14.96
2024-02-08T10:32:38.768Z,14.95
2024-02-08T10:36:04.482Z,14.80
2024-02-08T10:40:09.568Z,14.68
2024-02-08T10:43:48.225Z,15.14
2024-02-08T10:47:11.077Z,15.32
2024-02-08T10:50:39.791Z,15.17
2024-02-08T10:54:17.788Z,15.56
2024-02-08T10:58:02.983Z,15.65
2024-02-08T11:01:41.625Z,15.45
2024-02-08T11:05:39.940Z,15.00
2024-02-08T11:09:21.221Z,14.88
2024-02-08T11:12:56.431Z,15.02
2024-02-08T11:16:26.596Z,14.96
2024-02-08T11:19:58.461Z,14.73
2024-02-08T11:23:43.440Z,14.82
2024-02-08T11:27:17.912Z,14.39
2024-02-08T11:30:44.782Z,14.82
2024-02-08T11:34:32.452Z,15.35
2024-02-08T11:38:07.377Z,15.41
2024-02-08T11:41:34.675Z,15.44
2024-02-08T11:45:11.455Z,15.51
2024-02-08T11:48:49.369Z,15.24
2024-02-08T11:52:09.902Z,15.66
2024-02-08T11:55:38.450Z,15.35
2024-02-08T11:59:28.426Z,15.80
2024-02-08T12:03:05.801Z,15.48
2024-02-08T12:06:35.624Z,16.19
2024-02-08T12:10:21.109Z,16.83
2024-02-08T12:13:48.888Z,17.25
2024-02-08T12:17:03.865Z,17.62
2024-02-08T12:20:33.103Z,17.75
2024-02-08T12:24:05.003Z,17.36
2024-02-08T12:27:38.839Z,17.28
2024-02-08T12:30:55.554Z,17.26
2024-02-08T12:34:07.474Z,16.79
2024-02-08T12:37:19.988Z,16.59
2024-02-08T12:40:35.396Z,17.29
2024-02-08T12:43:48.092Z,16.53
2024-02-08T12:47:08.925Z,16.28
2024-02-08T12:50:29.110Z,16.48
2024-02-08T12:54:04.773Z,16.29
2024-02-08T12:57:28.641Z,16.06
2024-02-08T13:01:15.458Z,16.02
2024-02-08T13:04:47.139Z,16.29
2024-02-08T13:08:18.883Z,16.64
2024-02-08T13:11:51.179Z,16.87
2024-02-08T13:15:13.800Z,16.79
2024-02-08T13:18:26.156Z,16.90
2024-02-08T13:21:40.223Z,16.66
2024-02-08T13:24:57.920Z,16.52
2024-02-08T13:28:12.189Z,16.97
2024-02-08T13:31:35.471Z,16.39
2024-02-08T13:34:52.415Z,16.30
2024-02-08T13:37:59.174Z,16.48
2024-02-08T13:41:06.342Z,16.37
2024-02-08T13:44:32.654Z,16.34
2024-02-08T13:47:39.718Z,16.51
2024-02-08T13:50:58.367Z,16.90
2024-02-08T13:54:05.492Z,16.97
2024-02-08T13:57:25.982Z,17.05
2024-02-08T14:00:50.663Z,17.19
2024-02-08T14:04:22.648Z,17.02
2024-02-08T14:07:31.501Z,16.64
2024-02-08T14:10:38.529Z,16.57
2024-02-08T14:14:03.564Z,16.36
2024-02-08T14:17:27.744Z,15.89
2024-02-08T14:21:14.151Z,15.71
2024-02-08T14:25:01.942Z,15.53
2024-02-08T14:28:23.769Z,15.36
2024-02-08T14:31:49.361Z,15.51
2024-02-08T14:35:24.544Z,15.35
2024-02-08T14:38:46.571Z,15.32
2024-02-08T14:42:25.134Z,15.39
2024-02-08T14:46:02.189Z,15.70
2024-02-08T14:49:30.247Z,15.87
2024-02-08T14:52:51.247Z,15.96
2024-02-08T14:56:12.926Z,15.78
2024-02-08T14:59:35.801Z,15.72
2024-02-08T15:02:57.161Z,15.47
2024-02-08T15:06:01.975Z,15.54
2024-02-08T15:09:38.832Z,15.32
2024-02-08T15:12:58.816Z,15.26
2024-02-08T15:16:09.393Z,15.44
2024-02-08T15:19:28.103Z,15.34
2024-02-08T15:22:36.228Z,15.10
2024-02-08T15:25:46.716Z,14.78
2024-02-08T15:29:12.881Z,14.91
2024-02-08T15:32:32.503Z,14.96
2024-02-08T15:35:45.093Z,14.78
2024-02-08T15:39:02.659Z,14.74
2024-02-08T15:42:19.819Z,14.73
2024-02-08T15:45:36.449Z,14.60
2024-02-08T15:48:51.697Z,14.63
2024-02-08T15:51:59.508Z,14.58
2024-02-08T15:55:21.926Z,14.68
2024-02-08T15:58:46.697Z,14.67
2024-02-08T16:01:59.565Z,14.56
2024-02-08T16:05:16.594Z,14.58
2024-02-08T16:08:43.479Z,14.63
2024-02-08T16:12:24.498Z,14.55
2024-02-08T16:16:00.027Z,14.59
2024-02-08T16:19:25.451Z,14.54
2024-02-08T16:22:35.541Z,14.64
2024-02-08T16:25:46.996Z,14.53
2024-02-08T16:28:52.198Z,14.58
2024-02-08T16:31:56.449Z,14.60
2024-02-08T16:35:23.886Z,14.50
2024-02-08T16:38:31.675Z,14.55
2024-02-08T16:41:50.426Z,14.26
2024-02-08T16:45:26.030Z,14.13
2024-02-08T16:49:10.992Z,14.26
2024-02-08T16:52:44.110Z,14.08
2024-02-08T16:55:51.241Z,14.11
2024-02-08T16:59:10.277Z,14.33
2024-02-08T17:02:28.628Z,14.34
2024-02-08T17:05:55.484Z,14.12
2024-02-08T17:09:22.025Z,14.09
2024-02-08T17:13:12.353Z,13.99
2024-02-08T17:16:37.954Z,14.12
2024-02-08T17:20:24.205Z,13.97
2024-02-08T17:23:44.627Z,14.01
2024-02-08T17:27:01.015Z,14.07
2024-02-08T17:30:19.342Z,14.20
2024-02-08T17:33:32.231Z,14.09
2024-02-08T17:36:50.638Z,13.85
2024-02-08T17:40:22.682Z,13.98
2024-02-08T17:43:44.596Z,14.11
2024-02-08T17:46:54.313Z,14.07
2024-02-08T17:50:06.745Z,14.06
2024-02-08T17:53:27.157Z,13.99
2024-02-08T17:56:47.481Z,13.82
2024-02-08T18:00:03.015Z,13.93
2024-02-08T18:03:31.377Z,13.97
2024-02-08T18:06:45.799Z,13.67
2024-02-08T18:09:56.049Z,13.59
2024-02-08T18:13:19.816Z,13.62
2024-02-08T18:16:31.624Z,13.65
2024-02-08T18:19:43.955Z,13.54
2024-02-08T18:22:52.051Z,13.58
2024-02-08T18:26:05.588Z,13.47
2024-02-08T18:29:09.283Z,13.41
2024-02-08T18:32:20.741Z,13.35
2024-02-08T18:35:27.433Z,13.24
2024-02-08T18:38:50.820Z,13.36
2024-02-08T18:42:09.217Z,13.52
2024-02-08T18:45:29.228Z,13.73
2024-02-08T18:48:35.778Z,13.81
2024-02-08T18:52:02.875Z,13.83
2024-02-08T18:55:32.054Z,13.93
2024-02-08T18:58:44.417Z,13.94
2024-02-08T19:02:04.876Z,13.84
2024-02-08T19:05:17.537Z,13.86
2024-02-08T19:08:43.604Z,13.79
2024-02-08T19:12:17.166Z,13.77
2024-02-08T19:15:30.748Z,13.69
2024-02-08T19:18:59.638Z,13.65
2024-02-08T19:22:18.296Z,13.58
2024-02-08T19:25:37.027Z,13.27
2024-02-08T19:28:44.019Z,13.38
2024-02-08T19:31:48.079Z,13.29
2024-02-08T19:34:52.689Z,13.27
2024-02-08T19:38:05.485Z,13.13
2024-02-08T19:41:30.633Z,13.03
2024-02-08T19:44:50.419Z,12.93
2024-02-08T19:48:18.997Z,12.98
2024-02-08T19:51:27.501Z,12.83
2024-02-08T19:54:43.862Z,12.81
2024-02-08T19:57:50.676Z,12.96
2024-02-08T20:01:00.280Z,12.86
2024-02-08T20:04:25.816Z,12.77
2024-02-08T20:07:41.855Z,12.87
2024-02-08T20:10:58.857Z,12.69
2024-02-08T20:14:21.195Z,12.81
2024-02-08T20:17:40.842Z,12.73
2024-02-08T20:20:58.247Z,12.69
2024-02-08T20:24:13.181Z,12.62
2024-02-08T20:27:29.672Z,12.49
2024-02-08T20:31:01.465Z,12.49
2024-02-08T20:34:22.930Z,12.59
2024-02-08T20:37:34.299Z,12.46
2024-02-08T20:40:57.526Z,12.48
2024-02-08T20:44:24.602Z,12.67
2024-02-08T20:47:48.203Z,12.91
2024-02-08T20:51:13.133Z,12.96
2024-02-08T20:54:34.204Z,12.76
2024-02-08T20:57:54.238Z,12.59
2024-02-08T21:01:03.126Z,12.74
2024-02-08T21:04:07.129Z,12.63
2024-02-08T21:07:26.411Z,12.63
2024-02-08T21:10:32.842Z,12.50
2024-02-08T21:13:50.249Z,12.80
2024-02-08T21:17:13.267Z,12.66
2024-02-08T21:20:31.787Z,12.63
2024-02-08T21:24:01.291Z,12.66
2024-02-08T21:27:27.369Z,12.71
2024-02-08T21:30:46.316Z,12.70
2024-02-08T21:34:02.435Z,12.76
2024-02-08T21:37:22.142Z,12.91
2024-02-08T21:40:51.592Z,12.92
2024-02-08T21:44:15.838Z,12.84
2024-02-08T21:47:29.601Z,12.94
2024-02-08T21:50:55.214Z,12.83
2024-02-08T21:54:17.201Z,12.80
2024-02-08T21:57:37.205Z,12.24
2024-02-08T22:04:18.500Z,11.63
2024-02-08T22:07:34.433Z,11.44
2024-02-08T22:10:57.224Z,11.45
2024-02-08T22:14:17.188Z,11.46
2024-02-08T22:17:21.690Z,11.54
2024-02-08T22:20:29.635Z,11.60
2024-02-08T22:23:51.776Z,11.67
2024-02-08T22:27:05.067Z,11.68
2024-02-08T22:30:29.157Z,11.53
2024-02-08T22:33:54.953Z,11.53
2024-02-08T22:37:15.943Z,11.47
2024-02-08T22:40:26.871Z,11.31
2024-02-08T22:43:42.600Z,11.33
2024-02-08T22:47:10.915Z,11.25
2024-02-08T22:50:34.258Z,11.09
2024-02-08T22:53:56.849Z,11.08
2024-02-08T22:57:00.040Z,11.11
2024-02-08T23:00:23.768Z,10.94
2024-02-08T23:03:27.326Z,10.91
2024-02-08T23:06:36.679Z,11.03
2024-02-08T23:09:48.490Z,11.01
2024-02-08T23:12:54.521Z,10.86
2024-02-08T23:15:58.695Z,10.90
2024-02-08T23:19:06.373Z,10.87
2024-02-08T23:22:28.091Z,11.01
2024-02-08T23:25:43.079Z,10.94
2024-02-08T23:28:49.822Z,10.90
2024-02-08T23:31:53.209Z,10.91
2024-02-08T23:35:04.774Z,11.02
2024-02-08T23:38:13.418Z,10.95
2024-02-08T23:41:36.886Z,10.96
2024-02-08T23:45:06.269Z,10.91
2024-02-08T23:48:30.307Z,11.01
2024-02-08T23:51:49.477Z,10.87
2024-02-08T23:55:04.534Z,10.94
2024-02-08T23:58:12.389Z,11.03
